Terminal Aerodrome Forecast
Issued by NWS

Home | Current Version | Previous Version | Text Only | Print | Product List | Glossary Off
Versions: 1 2 3 4 5 6 7 8 9 10 11 12 13 14 15 16 17 18 19 20 21 22 23 24 25 26 27 28 29 30 31 32 33 34 35

000
FTUS43 KLOT 160500
TAFDPA
TAF
KDPA 160532Z 1606/1706 17005KT 1SM -SHRA BR OVC003
     FM160800 VRB03KT 3SM -SHRA BR OVC003
     FM161400 28008KT 3SM -SHRADZ BR OVC006
     FM161600 29012KT 6SM BR VCSH OVC009
     FM161800 31016G24KT P6SM OVC015
     FM170100 30014G21KT P6SM OVC025=

USA.gov is the U.S. government's official web portal to all federal, state and local government web resources and services.